Time;durP1;ratioP1;P1;durP2;ratioP2;P2;SDS_P1;SDS_P2;PMS_P1;PMS_P2;Temp;Humidity;BMP_temperature;BMP_pressure;BME280_temperature;BME280_humidity;BME280_pressure;Samples;Min_cycle;Max_cycle;Signal;HPM_P1;HPM_P2
2022/12/15 00:38:45;;;;;;;22.02;8.30;;;;;;;;;;5021004;28;20050;-76
2022/12/15 00:41:16;;;;;;;10.88;6.30;;;;;;;;;;5020434;28;20045;-76
2022/12/15 00:43:44;;;;;;;15.65;7.80;;;;;;;;;;5028615;28;20051;-76
2022/12/15 00:48:58;;;;;;;17.52;7.63;;;;;;;;;;5024073;28;20053;-76
2022/12/15 01:21:55;;;;;;;16.75;7.32;;;;;;;;;;5020909;28;20049;-75
2022/12/15 01:24:23;;;;;;;15.98;7.93;;;;;;;;;;5021678;28;20512;-76
2022/12/15 01:26:50;;;;;;;16.42;7.55;;;;;;;;;;5026370;28;20132;-75
2022/12/15 01:29:18;;;;;;;12.98;6.63;;;;;;;;;;5035918;28;20051;-76
2022/12/15 01:31:46;;;;;;;18.23;8.43;;;;;;;;;;5022904;28;20051;-76
2022/12/15 01:34:18;;;;;;;24.90;8.48;;;;;;;;;;5024628;28;20053;-76
2022/12/15 01:36:46;;;;;;;20.63;7.95;;;;;;;;;;5027290;28;20144;-76
2022/12/15 01:39:15;;;;;;;13.70;7.47;;;;;;;;;;5027527;28;20058;-75
2022/12/15 01:41:43;;;;;;;15.85;7.75;;;;;;;;;;5017727;28;20142;-76
2022/12/15 01:44:31;;;;;;;19.38;7.82;;;;;;;;;;5039066;28;20069;-76
2022/12/15 01:46:59;;;;;;;18.05;8.02;;;;;;;;;;5025155;28;20823;-76
2022/12/15 01:49:29;;;;;;;15.82;7.15;;;;;;;;;;5022813;28;20106;-76
2022/12/15 01:51:59;;;;;;;14.00;7.40;;;;;;;;;;5025024;28;20057;-76
2022/12/15 01:54:29;;;;;;;16.17;7.57;;;;;;;;;;5025610;28;20149;-76
2022/12/15 01:57:02;;;;;;;16.27;7.40;;;;;;;;;;5027995;28;20058;-75
2022/12/15 01:59:35;;;;;;;18.10;7.47;;;;;;;;;;5018992;28;20150;-76
2022/12/15 02:02:03;;;;;;;18.40;8.02;;;;;;;;;;5024502;28;20046;-76
2022/12/15 02:04:31;;;;;;;17.45;7.93;;;;;;;;;;5020968;28;20055;-77
2022/12/15 02:06:58;;;;;;;18.20;8.27;;;;;;;;;;5019249;28;20054;-76
2022/12/15 02:09:26;;;;;;;15.35;8.15;;;;;;;;;;5027898;28;20658;-76
2022/12/15 02:12:12;;;;;;;18.90;9.02;;;;;;;;;;5027078;28;20057;-76
2022/12/15 02:14:55;;;;;;;19.23;8.82;;;;;;;;;;5026021;28;20049;-76
2022/12/15 02:17:41;;;;;;;17.23;7.70;;;;;;;;;;5024969;28;20050;-76
2022/12/15 02:20:31;;;;;;;18.88;7.70;;;;;;;;;;5027265;28;20098;-75
2022/12/15 02:23:14;;;;;;;15.20;7.93;;;;;;;;;;5026603;28;20148;-76
2022/12/15 02:26:02;;;;;;;19.75;8.20;;;;;;;;;;5026370;28;20686;-76
2022/12/15 02:28:29;;;;;;;23.38;8.63;;;;;;;;;;5025854;28;20149;-76
2022/12/15 02:33:52;;;;;;;16.33;7.78;;;;;;;;;;5024878;28;20073;-76
2022/12/15 02:36:28;;;;;;;17.17;8.05;;;;;;;;;;5027958;28;20050;-75
2022/12/15 02:38:59;;;;;;;14.73;7.70;;;;;;;;;;5016504;28;20088;-76
2022/12/15 02:41:51;;;;;;;22.45;8.40;;;;;;;;;;5025811;28;20589;-76
2022/12/15 02:44:34;;;;;;;15.95;8.25;;;;;;;;;;5021732;28;19925;-75
2022/12/15 02:47:02;;;;;;;19.42;7.43;;;;;;;;;;5023586;28;20493;-76
2022/12/15 02:49:35;;;;;;;18.42;8.55;;;;;;;;;;5026336;28;20072;-76
2022/12/15 02:52:03;;;;;;;;;;;;;;;;;;5031671;28;20046;-76
2022/12/15 02:54:49;;;;;;;21.20;7.95;;;;;;;;;;5025054;28;42935;-76
2022/12/15 02:57:43;;;;;;;17.73;8.13;;;;;;;;;;5024255;28;20129;-75
2022/12/15 03:00:15;;;;;;;16.30;7.05;;;;;;;;;;5021774;28;20491;-75
2022/12/15 03:02:45;;;;;;;18.25;8.20;;;;;;;;;;5024908;28;20153;-76
2022/12/15 03:05:13;;;;;;;15.60;7.75;;;;;;;;;;5019309;28;20057;-76
2022/12/15 03:07:44;;;;;;;16.55;8.35;;;;;;;;;;5026791;28;20141;-76
2022/12/15 03:10:15;;;;;;;19.10;8.35;;;;;;;;;;5036948;28;20061;-76
2022/12/15 03:12:43;;;;;;;16.88;8.02;;;;;;;;;;5025254;28;20053;-76
2022/12/15 03:15:14;;;;;;;20.45;8.40;;;;;;;;;;5023006;28;20101;-76
2022/12/15 03:17:41;;;;;;;16.58;8.65;;;;;;;;;;5022680;28;20056;-76
2022/12/15 03:20:09;;;;;;;19.17;9.15;;;;;;;;;;5040969;28;20485;-76
2022/12/15 03:22:38;;;;;;;15.55;8.02;;;;;;;;;;5035746;28;20058;-76
2022/12/15 03:25:06;;;;;;;19.48;9.00;;;;;;;;;;5020734;28;20157;-76
2022/12/15 03:27:34;;;;;;;19.83;7.90;;;;;;;;;;5019353;28;20046;-76
2022/12/15 03:30:02;;;;;;;14.73;8.27;;;;;;;;;;5020609;28;20145;-76
2022/12/15 03:32:30;;;;;;;14.52;7.65;;;;;;;;;;5024576;28;20126;-76
2022/12/15 03:34:57;;;;;;;19.23;8.73;;;;;;;;;;5023733;28;20511;-76
2022/12/15 03:37:24;;;;;;;16.10;8.73;;;;;;;;;;5023951;28;20050;-76
2022/12/15 03:39:52;;;;;;;21.00;8.00;;;;;;;;;;5023166;28;20496;-76
2022/12/15 03:42:47;;;;;;;18.08;8.20;;;;;;;;;;5023788;28;20141;-76
2022/12/15 03:45:07;;;;;;;16.65;8.02;;;;;;;;;;5021043;28;20054;-75
2022/12/15 03:47:35;;;;;;;16.92;7.70;;;;;;;;;;5021587;28;20106;-76
2022/12/15 03:50:03;;;;;;;16.92;8.57;;;;;;;;;;5026151;28;21002;-76
2022/12/15 03:52:30;;;;;;;17.55;8.30;;;;;;;;;;5018761;28;20053;-76
2022/12/15 03:54:58;;;;;;;14.98;8.23;;;;;;;;;;5020775;28;20146;-76
2022/12/15 03:57:25;;;;;;;17.40;7.80;;;;;;;;;;5014668;28;20145;-75
2022/12/15 03:59:54;;;;;;;19.75;8.50;;;;;;;;;;5019611;28;20211;-76
2022/12/15 04:02:22;;;;;;;15.32;7.65;;;;;;;;;;5036904;28;20050;-76
2022/12/15 04:04:50;;;;;;;14.40;7.22;;;;;;;;;;5025510;28;20504;-76
2022/12/15 04:07:20;;;;;;;16.92;8.93;;;;;;;;;;5018390;28;20053;-76
2022/12/15 04:09:47;;;;;;;17.25;8.95;;;;;;;;;;5040564;28;20071;-76
2022/12/15 04:12:15;;;;;;;16.55;6.82;;;;;;;;;;5025991;28;20042;-76
2022/12/15 04:14:42;;;;;;;21.92;8.93;;;;;;;;;;5027775;28;20086;-76
2022/12/15 04:17:15;;;;;;;16.40;8.53;;;;;;;;;;5022460;28;20152;-76
2022/12/15 04:22:29;;;;;;;12.77;7.07;;;;;;;;;;5027041;28;20136;-76
2022/12/15 05:31:53;;;;;;;16.90;8.35;;;;;;;;;;5024207;28;20058;-76
2022/12/15 05:34:22;;;;;;;15.55;7.72;;;;;;;;;;5018763;28;20046;-77
2022/12/15 05:36:50;;;;;;;17.13;9.00;;;;;;;;;;5021008;28;20050;-76
2022/12/15 05:39:18;;;;;;;15.40;8.30;;;;;;;;;;5015867;28;20054;-76
2022/12/15 05:41:46;;;;;;;17.15;7.93;;;;;;;;;;5022156;28;20124;-76
2022/12/15 05:44:16;;;;;;;16.60;8.05;;;;;;;;;;5024278;28;20050;-75
2022/12/15 05:46:43;;;;;;;17.77;8.50;;;;;;;;;;5019206;28;20146;-76
2022/12/15 05:49:16;;;;;;;19.77;8.70;;;;;;;;;;5022742;28;20132;-76
2022/12/15 05:51:44;;;;;;;16.70;8.43;;;;;;;;;;5023785;28;20092;-76
2022/12/15 05:54:16;;;;;;;16.70;8.07;;;;;;;;;;5022217;28;20061;-76
2022/12/15 05:56:44;;;;;;;18.52;8.85;;;;;;;;;;5020933;28;20038;-76
2022/12/15 05:59:18;;;;;;;17.05;8.88;;;;;;;;;;5026200;28;20061;-76
2022/12/15 06:01:45;;;;;;;;;;;;;;;;;;5026956;28;20054;-76
2022/12/15 06:04:13;;;;;;;13.98;7.78;;;;;;;;;;5021726;28;44549;-76
2022/12/15 06:06:40;;;;;;;13.55;7.15;;;;;;;;;;5015239;28;20052;-76
2022/12/15 06:09:09;;;;;;;19.63;8.88;;;;;;;;;;5021101;28;20050;-76
2022/12/15 06:11:37;;;;;;;14.15;8.30;;;;;;;;;;5040498;28;20050;-76
2022/12/15 06:14:05;;;;;;;19.42;8.60;;;;;;;;;;5018496;28;20046;-76
2022/12/15 06:16:32;;;;;;;16.58;8.10;;;;;;;;;;5024505;28;20050;-76
2022/12/15 06:19:01;;;;;;;16.33;8.00;;;;;;;;;;5020500;28;20108;-76
2022/12/15 06:21:36;;;;;;;21.50;7.90;;;;;;;;;;5027538;28;20045;-76
2022/12/15 06:24:04;;;;;;;21.40;8.38;;;;;;;;;;5032868;28;20050;-76
2022/12/15 06:26:36;;;;;;;20.40;8.45;;;;;;;;;;5021917;28;20054;-76
2022/12/15 06:29:06;;;;;;;18.23;7.53;;;;;;;;;;5024309;28;20061;-76
2022/12/15 06:31:34;;;;;;;22.35;8.20;;;;;;;;;;5026721;28;20058;-76
2022/12/15 06:34:03;;;;;;;17.15;8.88;;;;;;;;;;5026204;28;20053;-76
2022/12/15 06:36:31;;;;;;;20.48;8.45;;;;;;;;;;5017269;28;20058;-76
2022/12/15 06:38:59;;;;;;;15.82;8.43;;;;;;;;;;5023086;28;20889;-76
2022/12/15 06:41:29;;;;;;;22.83;8.23;;;;;;;;;;5022648;28;20105;-77
2022/12/15 06:43:57;;;;;;;23.88;7.75;;;;;;;;;;5023606;28;20176;-76
2022/12/15 06:46:26;;;;;;;17.80;7.70;;;;;;;;;;5037737;28;20069;-76
2022/12/15 06:48:55;;;;;;;14.63;7.80;;;;;;;;;;5020219;28;20080;-76
2022/12/15 06:51:22;;;;;;;20.25;8.18;;;;;;;;;;5037629;28;20058;-76
2022/12/15 06:53:52;;;;;;;16.98;7.93;;;;;;;;;;5022197;28;20113;-76
2022/12/15 06:56:24;;;;;;;14.57;8.52;;;;;;;;;;5021376;28;20053;-76
2022/12/15 06:59:00;;;;;;;16.83;8.05;;;;;;;;;;5025468;28;20062;-76
2022/12/15 07:01:28;;;;;;;28.70;8.80;;;;;;;;;;5025544;28;20057;-76
2022/12/15 07:03:58;;;;;;;16.67;8.65;;;;;;;;;;5026733;28;20054;-76
2022/12/15 07:06:26;;;;;;;18.42;8.38;;;;;;;;;;5022264;28;20890;-76
2022/12/15 07:08:55;;;;;;;16.02;7.88;;;;;;;;;;5022148;28;20169;-76
2022/12/15 07:11:23;;;;;;;18.58;8.60;;;;;;;;;;5021208;28;20057;-76
2022/12/15 07:13:51;;;;;;;14.93;7.32;;;;;;;;;;5022694;28;21863;-76
2022/12/15 07:16:20;;;;;;;16.88;7.97;;;;;;;;;;5018848;28;20053;-76
2022/12/15 07:18:48;;;;;;;20.40;9.48;;;;;;;;;;5019821;28;20046;-76
2022/12/15 07:21:15;;;;;;;16.70;8.05;;;;;;;;;;5022211;28;20081;-76
2022/12/15 07:23:43;;;;;;;18.15;9.32;;;;;;;;;;5021441;28;20058;-76
2022/12/15 07:26:31;;;;;;;21.38;8.60;;;;;;;;;;5022063;28;20073;-76
2022/12/15 07:28:58;;;;;;;16.98;8.30;;;;;;;;;;5024860;28;20096;-76
2022/12/15 07:31:25;;;;;;;19.25;8.65;;;;;;;;;;5025627;28;21699;-76
2022/12/15 07:33:53;;;;;;;18.20;8.23;;;;;;;;;;5022978;28;20054;-76
2022/12/15 07:36:23;;;;;;;17.98;9.18;;;;;;;;;;5023168;28;20081;-76
2022/12/15 07:38:51;;;;;;;16.20;8.30;;;;;;;;;;5025175;28;20172;-76
2022/12/15 07:41:19;;;;;;;22.42;9.40;;;;;;;;;;5021413;28;20046;-77
2022/12/15 07:43:47;;;;;;;21.63;8.32;;;;;;;;;;5038798;28;20610;-76
2022/12/15 07:46:18;;;;;;;18.25;8.32;;;;;;;;;;5022647;28;20050;-76
2022/12/15 07:48:46;;;;;;;19.20;8.75;;;;;;;;;;5022770;28;20051;-77
2022/12/15 07:51:22;;;;;;;22.13;9.13;;;;;;;;;;5016422;28;20130;-76
2022/12/15 07:53:49;;;;;;;18.75;9.30;;;;;;;;;;5026141;28;20112;-76
2022/12/15 07:56:19;;;;;;;22.33;9.52;;;;;;;;;;5039125;28;20042;-76
2022/12/15 07:58:47;;;;;;;24.98;10.25;;;;;;;;;;5023830;28;20053;-76
2022/12/15 08:01:15;;;;;;;19.02;9.93;;;;;;;;;;5025737;28;21113;-76
2022/12/15 08:03:43;;;;;;;22.15;10.02;;;;;;;;;;5026347;28;20054;-76
2022/12/15 08:06:15;;;;;;;20.10;10.00;;;;;;;;;;5024629;28;20054;-76
2022/12/15 08:08:48;;;;;;;18.48;9.82;;;;;;;;;;5024695;28;20056;-76
2022/12/15 08:11:18;;;;;;;19.75;10.25;;;;;;;;;;5024121;28;20049;-76
2022/12/15 08:13:46;;;;;;;19.98;9.93;;;;;;;;;;5025746;28;20775;-76
2022/12/15 08:16:35;;;;;;;23.52;9.60;;;;;;;;;;5014164;28;20046;-76
2022/12/15 08:19:04;;;;;;;22.33;9.30;;;;;;;;;;5038629;28;20050;-76
2022/12/15 08:21:33;;;;;;;20.20;10.02;;;;;;;;;;5018170;28;20168;-76
2022/12/15 08:24:01;;;;;;;20.75;9.73;;;;;;;;;;5038823;28;20049;-76
2022/12/15 08:26:29;;;;;;;21.33;9.98;;;;;;;;;;5019149;28;20046;-76
2022/12/15 08:29:02;;;;;;;22.20;10.88;;;;;;;;;;5036812;28;20144;-76
2022/12/15 08:31:50;;;;;;;21.95;10.65;;;;;;;;;;5020944;28;20156;-76
2022/12/15 08:34:18;;;;;;;23.55;12.27;;;;;;;;;;5024588;28;20945;-76
2022/12/15 08:36:45;;;;;;;28.83;11.32;;;;;;;;;;5022071;28;20168;-76
2022/12/15 08:39:13;;;;;;;30.95;11.75;;;;;;;;;;5024052;28;20515;-77
2022/12/15 08:41:40;;;;;;;21.98;10.90;;;;;;;;;;5014883;28;20105;-76
2022/12/15 08:44:15;;;;;;;27.30;12.02;;;;;;;;;;5024971;28;20085;-77
2022/12/15 08:46:46;;;;;;;28.83;12.32;;;;;;;;;;5016018;28;20054;-77
2022/12/15 08:49:13;;;;;;;24.23;11.63;;;;;;;;;;5014857;28;20117;-76
2022/12/15 08:51:48;;;;;;;25.80;12.75;;;;;;;;;;5019817;28;20140;-76
2022/12/15 08:54:16;;;;;;;25.55;12.68;;;;;;;;;;5018361;28;20053;-77
2022/12/15 08:56:46;;;;;;;28.75;13.15;;;;;;;;;;5018327;28;20907;-76
2022/12/15 08:59:17;;;;;;;28.15;12.57;;;;;;;;;;5025379;28;20085;-76
2022/12/15 09:01:45;;;;;;;30.63;13.25;;;;;;;;;;5020584;28;20057;-77
2022/12/15 09:04:13;;;;;;;33.58;13.32;;;;;;;;;;5023410;28;20050;-77
2022/12/15 09:06:47;;;;;;;21.40;12.30;;;;;;;;;;5023436;28;20065;-77
2022/12/15 09:09:16;;;;;;;27.58;13.18;;;;;;;;;;5021682;28;20054;-77
2022/12/15 09:11:44;;;;;;;30.58;13.05;;;;;;;;;;5020719;28;20053;-76
2022/12/15 09:14:12;;;;;;;27.60;13.80;;;;;;;;;;5015026;28;20056;-77
2022/12/15 09:16:39;;;;;;;26.65;13.18;;;;;;;;;;5021578;28;20050;-76
2022/12/15 09:19:08;;;;;;;24.08;12.05;;;;;;;;;;5019255;28;20050;-76
2022/12/15 09:21:36;;;;;;;28.33;14.50;;;;;;;;;;5018265;28;20046;-76
2022/12/15 09:24:06;;;;;;;29.38;14.55;;;;;;;;;;5022772;28;20926;-76
2022/12/15 09:26:34;;;;;;;27.58;14.57;;;;;;;;;;5023925;28;20141;-76
2022/12/15 09:29:01;;;;;;;27.20;13.85;;;;;;;;;;5014524;28;20577;-76
2022/12/15 09:31:31;;;;;;;32.60;14.45;;;;;;;;;;5025207;28;20042;-76
2022/12/15 09:34:00;;;;;;;33.70;15.32;;;;;;;;;;5026505;28;20042;-77
2022/12/15 09:36:31;;;;;;;30.58;14.98;;;;;;;;;;5022853;28;20057;-76
2022/12/15 09:39:00;;;;;;;29.15;14.70;;;;;;;;;;5026741;28;20050;-76
2022/12/15 09:41:31;;;;;;;29.00;14.23;;;;;;;;;;5021285;28;20064;-77
2022/12/15 09:44:24;;;;;;;24.87;13.70;;;;;;;;;;5033014;28;20054;-77
2022/12/15 09:47:10;;;;;;;30.38;15.55;;;;;;;;;;5025662;28;20293;-76
2022/12/15 09:49:50;;;;;;;27.40;13.88;;;;;;;;;;5021082;28;21158;-78
2022/12/15 09:52:21;;;;;;;32.45;14.40;;;;;;;;;;5024789;28;20069;-76
2022/12/15 09:54:51;;;;;;;29.27;14.60;;;;;;;;;;5018994;28;20137;-77
2022/12/15 09:57:22;;;;;;;29.98;15.32;;;;;;;;;;5027406;28;20496;-77
2022/12/15 10:00:16;;;;;;;26.50;13.20;;;;;;;;;;5028306;28;20806;-77
2022/12/15 10:02:54;;;;;;;35.88;14.23;;;;;;;;;;5030021;28;21175;-77
2022/12/15 10:05:38;;;;;;;25.73;14.30;;;;;;;;;;5041492;28;20590;-78
2022/12/15 10:08:29;;;;;;;25.65;13.40;;;;;;;;;;5022433;28;20057;-78
2022/12/15 10:11:00;;;;;;;27.08;13.98;;;;;;;;;;5014771;28;20054;-78
2022/12/15 10:13:37;;;;;;;26.58;13.68;;;;;;;;;;5022286;28;20058;-79
2022/12/15 10:16:23;;;;;;;23.50;12.30;;;;;;;;;;5025323;28;20112;-78
2022/12/15 10:19:03;;;;;;;24.05;12.40;;;;;;;;;;5025576;28;20054;-78
2022/12/15 10:21:31;;;;;;;26.92;13.15;;;;;;;;;;5019839;28;20050;-78
2022/12/15 10:24:14;;;;;;;26.20;13.18;;;;;;;;;;5028293;28;20065;-79
2022/12/15 10:26:55;;;;;;;24.05;13.25;;;;;;;;;;5025120;28;20081;-78
2022/12/15 10:29:53;;;;;;;21.85;12.50;;;;;;;;;;5034148;28;20054;-78
2022/12/15 10:32:21;;;;;;;;;;;;;;;;;;5046114;28;20050;-79
2022/12/15 10:34:50;;;;;;;23.92;12.02;;;;;;;;;;5027816;28;43006;-78
2022/12/15 10:37:19;;;;;;;21.05;12.48;;;;;;;;;;5034282;28;20057;-79
2022/12/15 10:39:47;;;;;;;25.58;13.60;;;;;;;;;;5028074;28;20875;-78
2022/12/15 10:42:24;;;;;;;26.48;13.38;;;;;;;;;;5032914;28;20190;-79
2022/12/15 10:44:55;;;;;;;28.85;13.73;;;;;;;;;;5035323;28;22711;-78
2022/12/15 10:47:27;;;;;;;27.77;12.02;;;;;;;;;;5032793;28;20057;-78
2022/12/15 10:50:16;;;;;;;24.20;12.77;;;;;;;;;;5036520;28;20850;-78
2022/12/15 10:52:54;;;;;;;21.13;11.63;;;;;;;;;;5030650;28;20164;-78
2022/12/15 10:55:42;;;;;;;23.23;12.25;;;;;;;;;;5030548;28;20049;-77
2022/12/15 10:58:17;;;;;;;27.30;12.57;;;;;;;;;;5045924;28;20116;-79
2022/12/15 11:01:04;;;;;;;22.20;12.23;;;;;;;;;;5030645;28;20053;-78
2022/12/15 11:03:50;;;;;;;28.05;12.27;;;;;;;;;;5016694;28;20674;-78
2022/12/15 11:06:25;;;;;;;27.45;12.80;;;;;;;;;;5029361;28;20050;-78
2022/12/15 11:09:14;;;;;;;24.38;12.73;;;;;;;;;;5029960;28;20041;-78
2022/12/15 11:14:46;;;;;;;23.63;12.95;;;;;;;;;;5030997;28;20034;-79
2022/12/15 11:17:15;;;;;;;24.27;13.13;;;;;;;;;;5024798;28;20144;-78
2022/12/15 11:19:42;;;;;;;24.55;12.75;;;;;;;;;;5022543;28;20137;-78
2022/12/15 11:22:14;;;;;;;30.05;14.15;;;;;;;;;;5026129;28;20050;-80
2022/12/15 11:24:49;;;;;;;22.42;12.90;;;;;;;;;;5024909;28;20093;-78
2022/12/15 11:27:27;;;;;;;22.90;12.70;;;;;;;;;;5025950;28;20049;-78
2022/12/15 11:29:54;;;;;;;28.58;13.25;;;;;;;;;;5028935;28;20060;-78
2022/12/15 11:32:27;;;;;;;25.15;13.32;;;;;;;;;;5027029;28;20049;-79
2022/12/15 11:34:55;;;;;;;26.25;13.32;;;;;;;;;;5023147;28;20142;-78
2022/12/15 11:37:42;;;;;;;25.50;13.15;;;;;;;;;;5020142;28;20054;-78
2022/12/15 11:40:18;;;;;;;30.58;13.23;;;;;;;;;;5026124;28;20058;-78
2022/12/15 11:42:53;;;;;;;21.70;12.07;;;;;;;;;;5028793;28;20060;-78
2022/12/15 11:45:36;;;;;;;22.58;13.00;;;;;;;;;;5031866;28;20054;-78
2022/12/15 11:48:06;;;;;;;29.55;13.00;;;;;;;;;;5023549;28;20915;-78
2022/12/15 11:50:56;;;;;;;27.08;13.88;;;;;;;;;;5023097;28;20093;-78
2022/12/15 11:53:26;;;;;;;22.85;12.18;;;;;;;;;;5005663;28;20142;-77
2022/12/15 11:56:03;;;;;;;28.00;13.95;;;;;;;;;;5006134;28;20102;-78
2022/12/15 11:58:30;;;;;;;25.83;12.82;;;;;;;;;;5006184;28;20121;-78
2022/12/15 12:01:07;;;;;;;25.67;12.70;;;;;;;;;;4990834;28;20057;-78
2022/12/15 12:03:55;;;;;;;23.23;13.13;;;;;;;;;;5003066;28;20054;-79
2022/12/15 12:06:43;;;;;;;26.70;13.32;;;;;;;;;;5007031;28;20046;-78
2022/12/15 12:09:13;;;;;;;26.38;13.43;;;;;;;;;;5008143;28;20116;-78
2022/12/15 12:12:00;;;;;;;29.88;14.90;;;;;;;;;;5009157;28;20050;-78
2022/12/15 12:14:36;;;;;;;20.73;12.98;;;;;;;;;;4977693;28;20050;-78
2022/12/15 12:17:12;;;;;;;21.98;13.27;;;;;;;;;;5008651;28;20065;-78
2022/12/15 12:19:45;;;;;;;23.08;12.73;;;;;;;;;;5010147;28;20065;-78
2022/12/15 12:22:25;;;;;;;22.48;12.68;;;;;;;;;;4992533;28;20050;-78
2022/12/15 12:25:03;;;;;;;27.27;13.93;;;;;;;;;;5008429;28;20054;-78
2022/12/15 12:27:40;;;;;;;28.67;13.80;;;;;;;;;;5008431;28;20049;-79
2022/12/15 12:30:18;;;;;;;23.52;13.35;;;;;;;;;;4998284;28;20038;-78
2022/12/15 12:32:48;;;;;;;27.58;13.98;;;;;;;;;;5029291;28;20046;-78
2022/12/15 12:35:19;;;;;;;26.13;13.30;;;;;;;;;;5029568;28;20073;-78
2022/12/15 12:38:01;;;;;;;26.15;13.98;;;;;;;;;;5024596;28;20931;-78
2022/12/15 12:40:30;;;;;;;24.17;12.82;;;;;;;;;;5027789;28;20049;-78
2022/12/15 12:42:59;;;;;;;22.73;12.85;;;;;;;;;;5029783;28;20084;-78
2022/12/15 12:45:46;;;;;;;24.63;13.85;;;;;;;;;;5024738;28;20058;-78
2022/12/15 12:48:24;;;;;;;27.17;14.77;;;;;;;;;;5025300;28;20050;-78
2022/12/15 12:50:55;;;;;;;25.10;15.00;;;;;;;;;;5026933;28;20081;-77
2022/12/15 12:53:25;;;;;;;23.52;14.02;;;;;;;;;;5025396;28;20064;-78
2022/12/15 12:55:53;;;;;;;26.40;14.68;;;;;;;;;;5037806;28;20085;-78
2022/12/15 12:58:34;;;;;;;25.45;14.85;;;;;;;;;;5025273;28;20058;-78
2022/12/15 13:01:11;;;;;;;27.70;14.63;;;;;;;;;;5024634;28;20883;-78
2022/12/15 13:03:42;;;;;;;27.00;14.85;;;;;;;;;;5019758;28;20688;-78
2022/12/15 13:06:22;;;;;;;25.73;15.05;;;;;;;;;;5023028;28;20088;-78
2022/12/15 13:08:54;;;;;;;29.08;14.60;;;;;;;;;;5021499;28;20078;-78
2022/12/15 13:11:40;;;;;;;33.63;15.48;;;;;;;;;;5016762;28;20058;-78
2022/12/15 13:14:12;;;;;;;26.83;15.48;;;;;;;;;;5027986;28;20350;-78
2022/12/15 13:16:50;;;;;;;25.38;14.15;;;;;;;;;;5024714;28;20053;-78
2022/12/15 13:19:57;;;;;;;25.98;13.88;;;;;;;;;;5020763;28;20109;-77
2022/12/15 13:22:35;;;;;;;27.50;14.50;;;;;;;;;;5025868;28;20046;-78
2022/12/15 13:25:25;;;;;;;30.85;15.32;;;;;;;;;;5024494;28;20060;-78
2022/12/15 13:28:01;;;;;;;26.63;14.63;;;;;;;;;;5042334;28;20074;-78
2022/12/15 13:30:28;;;;;;;27.75;15.32;;;;;;;;;;5028165;28;21593;-79
2022/12/15 13:33:14;;;;;;;30.35;16.67;;;;;;;;;;5028696;28;20194;-79
2022/12/15 13:35:42;;;;;;;29.77;15.43;;;;;;;;;;5033861;28;20061;-79
2022/12/15 13:38:16;;;;;;;27.83;15.13;;;;;;;;;;5033170;28;20092;-78
2022/12/15 13:40:46;;;;;;;32.95;16.00;;;;;;;;;;5033197;28;20113;-78
2022/12/15 13:43:30;;;;;;;30.23;15.23;;;;;;;;;;5034898;28;20120;-80
2022/12/15 13:46:02;;;;;;;31.17;15.65;;;;;;;;;;5040068;28;20342;-78
2022/12/15 13:48:55;;;;;;;29.85;15.77;;;;;;;;;;5031189;28;20058;-79
2022/12/15 13:51:25;;;;;;;30.63;15.38;;;;;;;;;;5006502;28;20139;-78
2022/12/15 13:53:55;;;;;;;27.77;16.58;;;;;;;;;;5044445;28;20141;-78
2022/12/15 13:56:32;;;;;;;25.15;15.20;;;;;;;;;;5033314;28;20061;-78
2022/12/15 13:59:04;;;;;;;33.75;15.57;;;;;;;;;;5035573;28;20061;-79
2022/12/15 14:01:34;;;;;;;36.75;16.67;;;;;;;;;;5031184;28;20054;-78
2022/12/15 14:04:06;;;;;;;30.65;15.93;;;;;;;;;;5034314;28;20050;-78
2022/12/15 14:06:45;;;;;;;30.38;15.55;;;;;;;;;;5033925;28;20104;-78
2022/12/15 14:09:19;;;;;;;27.38;15.05;;;;;;;;;;5052511;28;20132;-79
2022/12/15 14:11:48;;;;;;;29.80;16.00;;;;;;;;;;5034939;28;20054;-78
2022/12/15 14:14:31;;;;;;;27.25;14.93;;;;;;;;;;5033526;28;20057;-78
2022/12/15 14:17:00;;;;;;;26.60;14.65;;;;;;;;;;5026027;28;20054;-79
2022/12/15 14:19:36;;;;;;;29.75;14.98;;;;;;;;;;5027953;28;20050;-78
2022/12/15 14:22:17;;;;;;;30.75;15.68;;;;;;;;;;5032666;28;20053;-79
2022/12/15 14:25:17;;;;;;;28.17;14.77;;;;;;;;;;5034159;28;20058;-78
2022/12/15 14:27:45;;;;;;;27.92;15.05;;;;;;;;;;5028636;28;20088;-78
2022/12/15 14:30:21;;;;;;;29.05;16.35;;;;;;;;;;5024040;28;20113;-79
2022/12/15 14:33:06;;;;;;;30.70;15.75;;;;;;;;;;5025851;28;20058;-79
2022/12/15 14:35:41;;;;;;;26.73;15.63;;;;;;;;;;5022141;28;20060;-78
2022/12/15 14:38:12;;;;;;;28.00;15.63;;;;;;;;;;5033235;28;20081;-78
2022/12/15 14:40:40;;;;;;;28.02;15.25;;;;;;;;;;5030006;28;20062;-78
2022/12/15 14:43:22;;;;;;;27.38;16.10;;;;;;;;;;5029705;28;20133;-78
2022/12/15 14:45:52;;;;;;;31.25;16.85;;;;;;;;;;5031350;28;20504;-78
2022/12/15 14:48:31;;;;;;;31.48;16.85;;;;;;;;;;5029367;28;20053;-78
2022/12/15 14:51:09;;;;;;;31.98;17.13;;;;;;;;;;5021635;28;20548;-79
2022/12/15 14:53:39;;;;;;;32.33;16.48;;;;;;;;;;5031235;28;20409;-78
2022/12/15 14:56:29;;;;;;;31.10;16.33;;;;;;;;;;5030434;28;20061;-78
2022/12/15 14:59:15;;;;;;;31.13;16.90;;;;;;;;;;5029342;28;20053;-78
2022/12/15 15:01:53;;;;;;;29.67;16.85;;;;;;;;;;5044374;28;20058;-78
2022/12/15 15:04:40;;;;;;;31.17;16.60;;;;;;;;;;5027664;28;20054;-78
2022/12/15 15:07:16;;;;;;;30.00;16.83;;;;;;;;;;5019088;28;20476;-78
2022/12/15 15:09:46;;;;;;;36.40;17.60;;;;;;;;;;5021138;28;20481;-78
2022/12/15 15:12:18;;;;;;;37.00;16.85;;;;;;;;;;5026819;28;20196;-78
2022/12/15 15:14:47;;;;;;;38.33;18.15;;;;;;;;;;5026255;28;21236;-78
2022/12/15 15:17:15;;;;;;;34.03;18.27;;;;;;;;;;5025422;28;20081;-78
2022/12/15 15:19:51;;;;;;;39.65;18.33;;;;;;;;;;5029679;28;20057;-78
2022/12/15 15:22:36;;;;;;;36.42;17.48;;;;;;;;;;5015101;28;20054;-78
2022/12/15 15:25:40;;;;;;;29.67;17.23;;;;;;;;;;5026133;28;20066;-79
2022/12/15 15:28:07;;;;;;;34.33;16.60;;;;;;;;;;5006813;28;20149;-78
2022/12/15 15:30:42;;;;;;;34.50;16.70;;;;;;;;;;5003266;28;20168;-78
2022/12/15 15:33:11;;;;;;;34.25;18.35;;;;;;;;;;5002157;28;20314;-78
2022/12/15 15:35:43;;;;;;;40.67;20.17;;;;;;;;;;5010202;28;20039;-78
2022/12/15 15:38:12;;;;;;;33.42;19.00;;;;;;;;;;5008452;28;20062;-78
2022/12/15 15:40:40;;;;;;;32.20;17.83;;;;;;;;;;5003603;28;20053;-78
2022/12/15 15:43:10;;;;;;;37.60;17.73;;;;;;;;;;5003954;28;20046;-78
2022/12/15 15:45:40;;;;;;;33.58;17.77;;;;;;;;;;5009633;28;20141;-78
2022/12/15 15:48:12;;;;;;;32.97;17.83;;;;;;;;;;5007818;28;20082;-78
2022/12/15 15:50:43;;;;;;;38.58;18.25;;;;;;;;;;5008918;28;20046;-78
2022/12/15 15:53:15;;;;;;;36.50;18.67;;;;;;;;;;5008953;28;20050;-79
2022/12/15 15:55:44;;;;;;;38.92;18.67;;;;;;;;;;5009694;28;20149;-79
2022/12/15 15:58:14;;;;;;;36.13;18.80;;;;;;;;;;4988613;28;20082;-79
2022/12/15 16:00:52;;;;;;;38.55;20.90;;;;;;;;;;5005812;28;20133;-79
2022/12/15 16:03:23;;;;;;;38.55;18.83;;;;;;;;;;5026147;28;20128;-78
2022/12/15 16:05:52;;;;;;;35.42;18.40;;;;;;;;;;5026739;28;20050;-78
2022/12/15 16:08:26;;;;;;;36.60;18.35;;;;;;;;;;5027466;28;20061;-78
2022/12/15 16:10:56;;;;;;;37.67;19.77;;;;;;;;;;5028212;28;20148;-78
2022/12/15 16:13:23;;;;;;;38.97;19.52;;;;;;;;;;5029653;28;21406;-78
2022/12/15 16:15:52;;;;;;;40.78;18.17;;;;;;;;;;5024660;28;20152;-79
2022/12/15 16:18:20;;;;;;;34.83;17.75;;;;;;;;;;5021810;28;20109;-78
2022/12/15 16:20:54;;;;;;;44.38;18.88;;;;;;;;;;5022730;28;20083;-78
2022/12/15 16:23:28;;;;;;;38.05;19.10;;;;;;;;;;5025469;28;20054;-78
2022/12/15 16:25:57;;;;;;;35.90;18.55;;;;;;;;;;5022998;28;20578;-78
2022/12/15 16:28:27;;;;;;;31.23;17.67;;;;;;;;;;5025424;28;20053;-78
2022/12/15 16:30:55;;;;;;;41.35;19.30;;;;;;;;;;5028602;28;20089;-79
2022/12/15 16:33:26;;;;;;;39.05;17.95;;;;;;;;;;5027320;28;20053;-78
2022/12/15 16:36:00;;;;;;;31.35;17.88;;;;;;;;;;5021072;28;20131;-78
2022/12/15 16:38:31;;;;;;;36.90;18.25;;;;;;;;;;5039299;28;20498;-78
2022/12/15 16:41:07;;;;;;;34.63;18.15;;;;;;;;;;5026929;28;20054;-78
2022/12/15 16:43:38;;;;;;;36.22;17.52;;;;;;;;;;5026003;28;20124;-78
2022/12/15 16:46:14;;;;;;;34.67;18.30;;;;;;;;;;5027966;28;20054;-78
2022/12/15 16:48:42;;;;;;;35.38;17.88;;;;;;;;;;5016384;28;20047;-78
2022/12/15 16:51:15;;;;;;;34.45;18.52;;;;;;;;;;5028186;28;20054;-78
2022/12/15 16:53:43;;;;;;;41.75;18.50;;;;;;;;;;5027985;28;20148;-78
2022/12/15 16:56:14;;;;;;;31.73;17.50;;;;;;;;;;5027897;28;20057;-78
2022/12/15 16:58:44;;;;;;;32.33;17.92;;;;;;;;;;5021579;28;20049;-78
2022/12/15 17:01:20;;;;;;;37.30;19.23;;;;;;;;;;5026845;28;20057;-78
2022/12/15 17:03:48;;;;;;;36.83;18.17;;;;;;;;;;5026487;28;20093;-78
2022/12/15 17:06:17;;;;;;;34.10;19.45;;;;;;;;;;5027291;28;20560;-78
2022/12/15 17:08:49;;;;;;;35.47;19.02;;;;;;;;;;5019602;28;20056;-77
2022/12/15 17:11:20;;;;;;;35.90;18.38;;;;;;;;;;5025936;28;20058;-78
2022/12/15 17:13:52;;;;;;;33.35;18.77;;;;;;;;;;5018590;28;20089;-78
2022/12/15 17:16:20;;;;;;;37.08;17.52;;;;;;;;;;5024966;28;20082;-78
2022/12/15 17:18:50;;;;;;;32.00;17.45;;;;;;;;;;5024725;28;20054;-78
2022/12/15 17:21:21;;;;;;;32.95;18.42;;;;;;;;;;5021903;28;20050;-78
2022/12/15 17:23:57;;;;;;;34.22;18.20;;;;;;;;;;5023421;28;20503;-78